RYR6NW EGPF-EPMO
Flight info
| Callsign | RYR6NW |
|---|---|
| Flight time | N/A |
| Altitude | 25000 |
| Route | PTH P600 ASNUD/N0441F370 DCT ELSAN DCT VAXIT DCT GOSOT DCT NASOK DCT SORIX |
| Aircraft | B738/M-SDE3FGILRWY/SB1 |
Departure
| Time | 2026-05-08 06:14 |
|---|---|
| Airport | Glasgow Airport (EGPF) |
Arrival
| Time | N/A |
|---|---|
| Airport | Warsaw Modlin Airport (EPMO) |
| Time | Latitude | Longitude | Altitude | Speed | Heading |
|---|---|---|---|---|---|
| 2026-05-08 06:00 | 55.86611 | -4.43826 | 28 ft | 0 kts | 136° |
| 2026-05-08 06:03 | 55.86612 | -4.43827 | 28 ft | 2 kts | 136° |
| 2026-05-08 06:03 | 55.86630 | -4.43858 | 28 ft | 4 kts | 136° |
| 2026-05-08 06:03 | 55.86645 | -4.43892 | 28 ft | 4 kts | 95° |
| 2026-05-08 06:04 | 55.86639 | -4.43933 | 28 ft | 4 kts | 48° |
| 2026-05-08 06:04 | 55.86636 | -4.43939 | 28 ft | 3 kts | 46° |
| 2026-05-08 06:08 | 55.86640 | -4.43931 | 28 ft | 2 kts | 46° |
| 2026-05-08 06:08 | 55.86668 | -4.43878 | 28 ft | 10 kts | 46° |
| 2026-05-08 06:08 | 55.86724 | -4.43771 | 28 ft | 12 kts | 53° |
| 2026-05-08 06:08 | 55.86750 | -4.43630 | 28 ft | 12 kts | 74° |
| 2026-05-08 06:09 | 55.86773 | -4.43490 | 28 ft | 12 kts | 73° |
| 2026-05-08 06:09 | 55.86796 | -4.43349 | 28 ft | 13 kts | 73° |
| 2026-05-08 06:09 | 55.86824 | -4.43185 | 28 ft | 15 kts | 73° |
| 2026-05-08 06:09 | 55.86857 | -4.42991 | 28 ft | 17 kts | 62° |
| 2026-05-08 06:10 | 55.86961 | -4.42883 | 28 ft | 18 kts | 26° |
| 2026-05-08 06:10 | 55.87082 | -4.42798 | 28 ft | 19 kts | 19° |
| 2026-05-08 06:10 | 55.87207 | -4.42712 | 28 ft | 19 kts | 23° |
| 2026-05-08 06:10 | 55.87328 | -4.42635 | 28 ft | 18 kts | 19° |
| 2026-05-08 06:11 | 55.87430 | -4.42514 | 28 ft | 18 kts | 47° |
| 2026-05-08 06:11 | 55.87514 | -4.42357 | 28 ft | 17 kts | 46° |
| 2026-05-08 06:11 | 55.87598 | -4.42201 | 28 ft | 17 kts | 47° |
| 2026-05-08 06:11 | 55.87680 | -4.42045 | 28 ft | 17 kts | 47° |
| 2026-05-08 06:12 | 55.87760 | -4.41899 | 28 ft | 16 kts | 37° |
| 2026-05-08 06:12 | 55.87871 | -4.41854 | 28 ft | 17 kts | 349° |
| 2026-05-08 06:12 | 55.87916 | -4.41976 | 28 ft | 13 kts | 240° |
| 2026-05-08 06:12 | 55.87860 | -4.42086 | 28 ft | 12 kts | 226° |
| 2026-05-08 06:13 | 55.87805 | -4.42189 | 28 ft | 11 kts | 226° |
| 2026-05-08 06:13 | 55.87696 | -4.42394 | 28 ft | 52 kts | 226° |
| 2026-05-08 06:13 | 55.87279 | -4.43169 | 28 ft | 119 kts | 226° |
| 2026-05-08 06:13 | 55.86588 | -4.44488 | 127 ft | 164 kts | 229° |
| 2026-05-08 06:14 | 55.85803 | -4.46006 | 844 ft | 166 kts | 228° |
| 2026-05-08 06:14 | 55.85002 | -4.47546 | 1606 ft | 174 kts | 228° |
| 2026-05-08 06:14 | 55.84173 | -4.49086 | 2075 ft | 177 kts | 228° |
| 2026-05-08 06:14 | 55.83323 | -4.50713 | 2487 ft | 181 kts | 229° |
| 2026-05-08 06:15 | 55.82427 | -4.52320 | 2849 ft | 183 kts | 227° |
| 2026-05-08 06:15 | 55.81511 | -4.53910 | 3239 ft | 187 kts | 227° |
| 2026-05-08 06:15 | 55.80675 | -4.55812 | 3645 ft | 204 kts | 242° |
| 2026-05-08 06:15 | 55.80176 | -4.58205 | 4038 ft | 210 kts | 259° |
| 2026-05-08 06:16 | 55.80149 | -4.60777 | 4433 ft | 214 kts | 277° |
| 2026-05-08 06:16 | 55.80649 | -4.63274 | 4825 ft | 218 kts | 297° |
| 2026-05-08 06:16 | 55.81645 | -4.65328 | 5209 ft | 224 kts | 317° |
| 2026-05-08 06:16 | 55.83035 | -4.66650 | 5598 ft | 232 kts | 339° |
| 2026-05-08 06:17 | 55.86312 | -4.66137 | 6405 ft | 259 kts | 26° |
| 2026-05-08 06:17 | 55.87782 | -4.64068 | 6844 ft | 281 kts | 45° |
| 2026-05-08 06:17 | 55.89172 | -4.61459 | 7260 ft | 297 kts | 45° |
| 2026-05-08 06:18 | 55.90629 | -4.58796 | 7643 ft | 302 kts | 45° |
| 2026-05-08 06:18 | 55.92111 | -4.56158 | 8016 ft | 301 kts | 43° |
| 2026-05-08 06:18 | 55.93634 | -4.53588 | 8395 ft | 301 kts | 38° |
| 2026-05-08 06:18 | 55.95468 | -4.51894 | 8743 ft | 297 kts | 8° |
| 2026-05-08 06:19 | 55.97497 | -4.51803 | 9173 ft | 290 kts | 344° |
| 2026-05-08 06:19 | 55.99457 | -4.52619 | 9572 ft | 294 kts | 352° |
| 2026-05-08 06:19 | 56.01479 | -4.51900 | 9945 ft | 306 kts | 27° |
| 2026-05-08 06:19 | 56.02592 | -4.50353 | 10197 ft | 309 kts | 49° |
| 2026-05-08 06:20 | 56.03724 | -4.46952 | 10405 ft | 331 kts | 67° |
| 2026-05-08 06:20 | 56.04716 | -4.43066 | 10667 ft | 353 kts | 65° |
| 2026-05-08 06:20 | 56.05851 | -4.39108 | 11299 ft | 361 kts | 62° |
| 2026-05-08 06:20 | 56.07120 | -4.35192 | 12097 ft | 365 kts | 59° |
| 2026-05-08 06:21 | 56.08478 | -4.31333 | 12902 ft | 369 kts | 57° |
| 2026-05-08 06:21 | 56.09897 | -4.27479 | 13667 ft | 373 kts | 57° |
| 2026-05-08 06:21 | 56.11357 | -4.23593 | 14340 ft | 378 kts | 56° |
| 2026-05-08 06:21 | 56.12837 | -4.19669 | 14996 ft | 383 kts | 56° |
| 2026-05-08 06:22 | 56.14335 | -4.15686 | 15649 ft | 388 kts | 57° |
| 2026-05-08 06:22 | 56.15826 | -4.11623 | 16292 ft | 392 kts | 62° |
| 2026-05-08 06:22 | 56.16755 | -4.07038 | 16914 ft | 393 kts | 80° |
| 2026-05-08 06:22 | 56.17388 | -4.02253 | 17600 ft | 398 kts | 73° |
| 2026-05-08 06:23 | 56.18698 | -3.97832 | 18187 ft | 406 kts | 54° |
| 2026-05-08 06:23 | 56.20409 | -3.93796 | 18845 ft | 408 kts | 53° |
| 2026-05-08 06:23 | 56.22160 | -3.89734 | 19415 ft | 412 kts | 53° |
| 2026-05-08 06:23 | 56.23922 | -3.85633 | 19955 ft | 417 kts | 53° |
| 2026-05-08 06:24 | 56.25692 | -3.81474 | 20543 ft | 420 kts | 53° |
| 2026-05-08 06:24 | 56.27466 | -3.77270 | 21105 ft | 424 kts | 54° |
| 2026-05-08 06:24 | 56.29246 | -3.73022 | 21663 ft | 427 kts | 54° |
| 2026-05-08 06:24 | 56.31039 | -3.68721 | 22202 ft | 431 kts | 54° |
| 2026-05-08 06:25 | 56.32843 | -3.64384 | 22726 ft | 434 kts | 54° |
| 2026-05-08 06:25 | 56.34659 | -3.60009 | 23250 ft | 438 kts | 54° |
| 2026-05-08 06:25 | 56.36468 | -3.55645 | 23730 ft | 441 kts | 54° |
| 2026-05-08 06:25 | 56.38308 | -3.51195 | 24165 ft | 444 kts | 54° |
| 2026-05-08 06:26 | 56.40164 | -3.46706 | 24608 ft | 447 kts | 54° |
| 2026-05-08 06:26 | 56.42028 | -3.42188 | 25003 ft | 450 kts | 54° |
| 2026-05-08 06:26 | 56.43920 | -3.37667 | 25424 ft | 453 kts | 50° |
| 2026-05-08 06:26 | 56.46276 | -3.33872 | 25801 ft | 456 kts | 33° |
| 2026-05-08 06:27 | 56.48926 | -3.30707 | 26268 ft | 457 kts | 32° |
| 2026-05-08 06:27 | 56.51608 | -3.27567 | 26665 ft | 460 kts | 32° |
| 2026-05-08 06:27 | 56.54291 | -3.24376 | 27056 ft | 463 kts | 32° |
| 2026-05-08 06:27 | 56.56976 | -3.21107 | 27434 ft | 466 kts | 33° |
| 2026-05-08 06:28 | 56.59657 | -3.17784 | 27800 ft | 469 kts | 33° |
| 2026-05-08 06:28 | 56.62353 | -3.14418 | 28189 ft | 471 kts | 33° |
| 2026-05-08 06:28 | 56.65055 | -3.11028 | 28559 ft | 474 kts | 35° |
| 2026-05-08 06:28 | 56.67442 | -3.06890 | 28837 ft | 477 kts | 56° |
| 2026-05-08 06:29 | 56.69028 | -3.01622 | 29210 ft | 475 kts | 71° |
| 2026-05-08 06:29 | 56.69814 | -2.95845 | 29542 ft | 470 kts | 88° |
| 2026-05-08 06:29 | 56.70015 | -2.89908 | 29856 ft | 470 kts | 91° |
| 2026-05-08 06:29 | 56.70142 | -2.83966 | 30246 ft | 469 kts | 91° |
| 2026-05-08 06:30 | 56.70252 | -2.78037 | 30571 ft | 470 kts | 91° |
| 2026-05-08 06:30 | 56.70364 | -2.72089 | 30833 ft | 471 kts | 91° |
| 2026-05-08 06:30 | 56.70487 | -2.66121 | 31148 ft | 472 kts | 91° |
| 2026-05-08 06:30 | 56.70621 | -2.60163 | 31549 ft | 470 kts | 91° |
| 2026-05-08 06:31 | 56.70762 | -2.54233 | 31990 ft | 468 kts | 91° |
| 2026-05-08 06:31 | 56.70905 | -2.48321 | 32374 ft | 467 kts | 91° |
| 2026-05-08 06:31 | 56.71047 | -2.42434 | 32708 ft | 466 kts | 91° |
| 2026-05-08 06:31 | 56.71188 | -2.36530 | 33040 ft | 466 kts | 91° |
| 2026-05-08 06:32 | 56.71323 | -2.30730 | 33399 ft | 464 kts | 91° |
| 2026-05-08 06:32 | 56.71459 | -2.24795 | 33831 ft | 461 kts | 92° |
| 2026-05-08 06:32 | 56.71589 | -2.18974 | 34161 ft | 460 kts | 92° |
| 2026-05-08 06:32 | 56.71715 | -2.13144 | 34348 ft | 462 kts | 92° |
| 2026-05-08 06:33 | 56.71838 | -2.07293 | 34518 ft | 464 kts | 92° |
| 2026-05-08 06:33 | 56.71959 | -2.01416 | 34742 ft | 464 kts | 92° |
| 2026-05-08 06:33 | 56.72077 | -1.95556 | 34984 ft | 464 kts | 92° |
| 2026-05-08 06:33 | 56.72193 | -1.89679 | 35196 ft | 465 kts | 92° |
| 2026-05-08 06:34 | 56.72307 | -1.83800 | 35385 ft | 466 kts | 92° |
| 2026-05-08 06:34 | 56.72418 | -1.77907 | 35588 ft | 466 kts | 91° |
| 2026-05-08 06:34 | 56.72526 | -1.72004 | 35798 ft | 466 kts | 91° |
| 2026-05-08 06:34 | 56.72632 | -1.66121 | 36118 ft | 463 kts | 91° |
| 2026-05-08 06:35 | 56.72735 | -1.60268 | 36361 ft | 463 kts | 91° |
| 2026-05-08 06:35 | 56.72834 | -1.54402 | 36521 ft | 464 kts | 91° |
| 2026-05-08 06:35 | 56.72929 | -1.48601 | 36688 ft | 465 kts | 91° |
| 2026-05-08 06:35 | 56.73023 | -1.42705 | 36900 ft | 465 kts | 91° |
| 2026-05-08 06:36 | 56.73115 | -1.36815 | 37017 ft | 467 kts | 91° |
| 2026-05-08 06:36 | 56.73203 | -1.30884 | 37009 ft | 469 kts | 91° |
| 2026-05-08 06:36 | 56.73374 | -1.19052 | 37003 ft | 465 kts | 91° |
| 2026-05-08 06:37 | 56.73532 | -1.07328 | 37013 ft | 461 kts | 91° |
| 2026-05-08 06:37 | 56.73678 | -0.95700 | 37017 ft | 457 kts | 91° |
| 2026-05-08 06:38 | 56.73810 | -0.84151 | 37024 ft | 456 kts | 91° |
| 2026-05-08 06:38 | 56.73932 | -0.72549 | 37044 ft | 461 kts | 91° |
| 2026-05-08 06:39 | 56.74044 | -0.60781 | 37034 ft | 467 kts | 92° |
| 2026-05-08 06:39 | 56.74148 | -0.48924 | 37027 ft | 469 kts | 92° |
| 2026-05-08 06:40 | 56.74241 | -0.37019 | 37035 ft | 470 kts | 92° |
| 2026-05-08 06:40 | 56.74323 | -0.25109 | 37037 ft | 470 kts | 92° |
| 2026-05-08 06:41 | 56.74394 | -0.13220 | 37036 ft | 469 kts | 92° |
| 2026-05-08 06:41 | 56.74452 | -0.01376 | 37029 ft | 467 kts | 92° |
| 2026-05-08 06:42 | 56.74499 | 0.10416 | 37039 ft | 464 kts | 92° |
| 2026-05-08 06:42 | 56.74535 | 0.22147 | 37040 ft | 462 kts | 92° |
| 2026-05-08 06:43 | 56.74559 | 0.33825 | 37057 ft | 460 kts | 92° |
| 2026-05-08 06:43 | 56.74573 | 0.45389 | 37051 ft | 459 kts | 92° |
| 2026-05-08 06:44 | 56.74575 | 0.57002 | 37059 ft | 458 kts | 92° |
| 2026-05-08 06:44 | 56.74567 | 0.68595 | 37050 ft | 458 kts | 92° |
| 2026-05-08 06:45 | 56.74548 | 0.80195 | 37074 ft | 458 kts | 92° |
| 2026-05-08 06:45 | 56.74518 | 0.91818 | 37074 ft | 459 kts | 92° |
| 2026-05-08 06:46 | 56.74477 | 1.03477 | 37078 ft | 461 kts | 93° |
| 2026-05-08 06:46 | 56.74426 | 1.15165 | 37078 ft | 462 kts | 93° |
| 2026-05-08 06:47 | 56.74363 | 1.26876 | 37082 ft | 463 kts | 93° |
| 2026-05-08 06:47 | 56.74289 | 1.38616 | 37086 ft | 464 kts | 93° |
| 2026-05-08 06:48 | 56.74205 | 1.50356 | 37096 ft | 464 kts | 93° |
| 2026-05-08 06:48 | 56.74109 | 1.62126 | 37096 ft | 464 kts | 93° |
| 2026-05-08 06:49 | 56.74002 | 1.73811 | 37102 ft | 464 kts | 93° |
| 2026-05-08 06:49 | 56.73885 | 1.85554 | 37098 ft | 463 kts | 93° |
| 2026-05-08 06:50 | 56.73756 | 1.97262 | 37109 ft | 461 kts | 94° |
| 2026-05-08 06:50 | 56.73617 | 2.08936 | 37111 ft | 460 kts | 94° |
| 2026-05-08 06:51 | 56.73467 | 2.20567 | 37108 ft | 459 kts | 94° |
| 2026-05-08 06:51 | 56.73307 | 2.32189 | 37109 ft | 458 kts | 94° |
| 2026-05-08 06:52 | 56.73137 | 2.43766 | 37098 ft | 457 kts | 94° |
| 2026-05-08 06:52 | 56.72956 | 2.55318 | 37102 ft | 456 kts | 94° |
| 2026-05-08 06:53 | 56.72765 | 2.66840 | 37103 ft | 455 kts | 94° |
| 2026-05-08 06:53 | 56.72564 | 2.78350 | 37107 ft | 454 kts | 94° |
| 2026-05-08 06:54 | 56.72352 | 2.89852 | 37107 ft | 454 kts | 94° |
| 2026-05-08 06:54 | 56.72130 | 3.01329 | 37112 ft | 454 kts | 95° |
| 2026-05-08 06:55 | 56.71898 | 3.12807 | 37141 ft | 454 kts | 95° |
| 2026-05-08 06:55 | 56.71655 | 3.24285 | 37135 ft | 453 kts | 95° |
| 2026-05-08 06:56 | 56.71402 | 3.35744 | 37141 ft | 453 kts | 95° |
| 2026-05-08 06:56 | 56.71138 | 3.47204 | 37149 ft | 453 kts | 95° |
| 2026-05-08 06:57 | 56.70865 | 3.58659 | 37157 ft | 453 kts | 95° |
| 2026-05-08 06:57 | 56.70584 | 3.70031 | 37153 ft | 452 kts | 95° |
| 2026-05-08 06:58 | 56.69644 | 3.81256 | 37182 ft | 447 kts | 106° |
| 2026-05-08 06:58 | 56.68167 | 3.92244 | 37170 ft | 447 kts | 107° |
| 2026-05-08 06:59 | 56.66693 | 4.03225 | 37174 ft | 447 kts | 106° |
| 2026-05-08 06:59 | 56.65254 | 4.14219 | 37179 ft | 446 kts | 106° |
| 2026-05-08 07:00 | 56.63826 | 4.25191 | 37179 ft | 446 kts | 106° |
| 2026-05-08 07:00 | 56.62392 | 4.36129 | 37184 ft | 445 kts | 106° |
| 2026-05-08 07:01 | 56.60950 | 4.47041 | 37187 ft | 444 kts | 106° |